sensor_id;sensor_type;location;lat;lon;timestamp;P1;durP1;ratioP1;P2;durP2;ratioP2
16522;SDS011;19889;52.546;13.348;2023-06-24T00:00:42;14.85;;;10.00;;
16522;SDS011;19889;52.546;13.348;2023-06-24T00:03:09;15.65;;;11.00;;
16522;SDS011;19889;52.546;13.348;2023-06-24T00:05:37;11.98;;;10.32;;
16522;SDS011;19889;52.546;13.348;2023-06-24T00:08:05;12.45;;;11.13;;
16522;SDS011;19889;52.546;13.348;2023-06-24T00:10:33;12.73;;;11.05;;
16522;SDS011;19889;52.546;13.348;2023-06-24T00:13:00;12.65;;;11.13;;
16522;SDS011;19889;52.546;13.348;2023-06-24T00:15:28;14.18;;;10.18;;
16522;SDS011;19889;52.546;13.348;2023-06-24T00:17:55;14.38;;;11.00;;
16522;SDS011;19889;52.546;13.348;2023-06-24T00:20:31;15.50;;;10.48;;
16522;SDS011;19889;52.546;13.348;2023-06-24T00:22:58;11.27;;;10.07;;
16522;SDS011;19889;52.546;13.348;2023-06-24T00:25:25;13.85;;;10.23;;
16522;SDS011;19889;52.546;13.348;2023-06-24T00:27:53;11.70;;;10.50;;
16522;SDS011;19889;52.546;13.348;2023-06-24T00:30:21;13.50;;;11.10;;
16522;SDS011;19889;52.546;13.348;2023-06-24T00:32:48;17.45;;;11.23;;
16522;SDS011;19889;52.546;13.348;2023-06-24T00:35:15;12.43;;;11.13;;
16522;SDS011;19889;52.546;13.348;2023-06-24T00:37:42;14.02;;;11.93;;
16522;SDS011;19889;52.546;13.348;2023-06-24T00:40:10;14.93;;;11.77;;
16522;SDS011;19889;52.546;13.348;2023-06-24T00:42:40;15.98;;;12.50;;
16522;SDS011;19889;52.546;13.348;2023-06-24T00:45:09;16.33;;;13.85;;
16522;SDS011;19889;52.546;13.348;2023-06-24T00:47:37;17.92;;;11.82;;
16522;SDS011;19889;52.546;13.348;2023-06-24T00:50:06;18.70;;;13.25;;
16522;SDS011;19889;52.546;13.348;2023-06-24T00:52:33;17.98;;;13.30;;
16522;SDS011;19889;52.546;13.348;2023-06-24T00:55:02;14.75;;;13.10;;
16522;SDS011;19889;52.546;13.348;2023-06-24T00:57:30;16.05;;;12.98;;
16522;SDS011;19889;52.546;13.348;2023-06-24T00:59:57;16.83;;;13.18;;
16522;SDS011;19889;52.546;13.348;2023-06-24T01:02:28;17.05;;;13.13;;
16522;SDS011;19889;52.546;13.348;2023-06-24T01:04:57;15.90;;;13.40;;
16522;SDS011;19889;52.546;13.348;2023-06-24T01:07:24;16.58;;;13.13;;
16522;SDS011;19889;52.546;13.348;2023-06-24T01:09:52;17.27;;;13.57;;
16522;SDS011;19889;52.546;13.348;2023-06-24T01:12:20;14.45;;;12.90;;
16522;SDS011;19889;52.546;13.348;2023-06-24T01:14:47;19.65;;;13.40;;
16522;SDS011;19889;52.546;13.348;2023-06-24T01:17:15;18.58;;;14.20;;
16522;SDS011;19889;52.546;13.348;2023-06-24T01:19:53;16.90;;;13.93;;
16522;SDS011;19889;52.546;13.348;2023-06-24T01:22:37;17.42;;;13.48;;
16522;SDS011;19889;52.546;13.348;2023-06-24T01:25:30;15.88;;;13.82;;
16522;SDS011;19889;52.546;13.348;2023-06-24T01:31:18;15.68;;;12.50;;
16522;SDS011;19889;52.546;13.348;2023-06-24T01:34:08;15.35;;;13.20;;
16522;SDS011;19889;52.546;13.348;2023-06-24T01:36:46;16.23;;;13.23;;
16522;SDS011;19889;52.546;13.348;2023-06-24T01:39:20;18.08;;;14.52;;
16522;SDS011;19889;52.546;13.348;2023-06-24T01:41:53;17.35;;;13.13;;
16522;SDS011;19889;52.546;13.348;2023-06-24T01:44:25;15.38;;;13.18;;
16522;SDS011;19889;52.546;13.348;2023-06-24T01:46:57;16.10;;;12.38;;
16522;SDS011;19889;52.546;13.348;2023-06-24T01:49:26;14.75;;;13.25;;
16522;SDS011;19889;52.546;13.348;2023-06-24T01:51:55;13.77;;;12.20;;
16522;SDS011;19889;52.546;13.348;2023-06-24T01:54:26;16.60;;;12.75;;
16522;SDS011;19889;52.546;13.348;2023-06-24T01:56:54;14.60;;;12.77;;
16522;SDS011;19889;52.546;13.348;2023-06-24T01:59:23;17.52;;;12.57;;
16522;SDS011;19889;52.546;13.348;2023-06-24T02:01:54;15.25;;;13.52;;
16522;SDS011;19889;52.546;13.348;2023-06-24T02:04:23;18.08;;;12.95;;
16522;SDS011;19889;52.546;13.348;2023-06-24T02:06:56;13.88;;;12.32;;
16522;SDS011;19889;52.546;13.348;2023-06-24T02:09:24;14.85;;;12.23;;
16522;SDS011;19889;52.546;13.348;2023-06-24T02:11:53;14.93;;;12.52;;
16522;SDS011;19889;52.546;13.348;2023-06-24T02:14:22;15.52;;;11.73;;
16522;SDS011;19889;52.546;13.348;2023-06-24T02:16:50;15.02;;;12.45;;
16522;SDS011;19889;52.546;13.348;2023-06-24T02:19:22;15.02;;;11.93;;
16522;SDS011;19889;52.546;13.348;2023-06-24T02:21:54;14.52;;;11.82;;
16522;SDS011;19889;52.546;13.348;2023-06-24T02:24:24;15.52;;;12.43;;
16522;SDS011;19889;52.546;13.348;2023-06-24T02:26:53;12.35;;;11.05;;
16522;SDS011;19889;52.546;13.348;2023-06-24T02:29:22;14.45;;;11.55;;
16522;SDS011;19889;52.546;13.348;2023-06-24T02:32:15;13.77;;;12.25;;
16522;SDS011;19889;52.546;13.348;2023-06-24T02:34:43;14.38;;;11.90;;
16522;SDS011;19889;52.546;13.348;2023-06-24T02:37:10;16.13;;;12.02;;
16522;SDS011;19889;52.546;13.348;2023-06-24T02:39:37;14.75;;;12.73;;
16522;SDS011;19889;52.546;13.348;2023-06-24T02:42:09;13.68;;;11.82;;
16522;SDS011;19889;52.546;13.348;2023-06-24T02:44:36;13.93;;;11.85;;
16522;SDS011;19889;52.546;13.348;2023-06-24T02:47:05;15.32;;;11.63;;
16522;SDS011;19889;52.546;13.348;2023-06-24T02:49:34;14.80;;;11.15;;
16522;SDS011;19889;52.546;13.348;2023-06-24T02:52:05;15.45;;;12.13;;
16522;SDS011;19889;52.546;13.348;2023-06-24T02:54:33;12.98;;;11.35;;
16522;SDS011;19889;52.546;13.348;2023-06-24T02:57:33;13.10;;;11.18;;
16522;SDS011;19889;52.546;13.348;2023-06-24T03:00:20;12.80;;;10.95;;
16522;SDS011;19889;52.546;13.348;2023-06-24T03:03:15;13.90;;;10.57;;
16522;SDS011;19889;52.546;13.348;2023-06-24T03:05:49;14.13;;;10.65;;
16522;SDS011;19889;52.546;13.348;2023-06-24T03:08:20;14.57;;;10.45;;
16522;SDS011;19889;52.546;13.348;2023-06-24T03:10:50;15.73;;;11.10;;
16522;SDS011;19889;52.546;13.348;2023-06-24T03:13:20;12.05;;;10.75;;
16522;SDS011;19889;52.546;13.348;2023-06-24T03:15:53;12.57;;;10.85;;
16522;SDS011;19889;52.546;13.348;2023-06-24T03:18:20;12.82;;;11.00;;
16522;SDS011;19889;52.546;13.348;2023-06-24T03:20:48;14.13;;;10.82;;
16522;SDS011;19889;52.546;13.348;2023-06-24T03:23:20;12.77;;;10.32;;
16522;SDS011;19889;52.546;13.348;2023-06-24T03:25:48;12.30;;;11.00;;
16522;SDS011;19889;52.546;13.348;2023-06-24T03:28:15;11.63;;;10.38;;
16522;SDS011;19889;52.546;13.348;2023-06-24T03:30:47;13.50;;;10.40;;
16522;SDS011;19889;52.546;13.348;2023-06-24T03:33:18;13.18;;;10.60;;
16522;SDS011;19889;52.546;13.348;2023-06-24T03:35:45;14.18;;;9.80;;
16522;SDS011;19889;52.546;13.348;2023-06-24T03:38:16;12.82;;;9.18;;
16522;SDS011;19889;52.546;13.348;2023-06-24T03:40:46;13.35;;;9.70;;
16522;SDS011;19889;52.546;13.348;2023-06-24T03:43:13;14.63;;;9.48;;
16522;SDS011;19889;52.546;13.348;2023-06-24T03:45:40;13.30;;;9.68;;
16522;SDS011;19889;52.546;13.348;2023-06-24T03:48:07;11.50;;;9.27;;
16522;SDS011;19889;52.546;13.348;2023-06-24T03:50:34;11.20;;;9.60;;
16522;SDS011;19889;52.546;13.348;2023-06-24T03:53:01;11.75;;;9.70;;
16522;SDS011;19889;52.546;13.348;2023-06-24T03:55:29;12.23;;;10.77;;
16522;SDS011;19889;52.546;13.348;2023-06-24T03:57:58;12.85;;;9.68;;
16522;SDS011;19889;52.546;13.348;2023-06-24T04:00:26;13.68;;;10.52;;
16522;SDS011;19889;52.546;13.348;2023-06-24T04:02:53;12.93;;;10.52;;
16522;SDS011;19889;52.546;13.348;2023-06-24T04:05:20;12.00;;;9.30;;
16522;SDS011;19889;52.546;13.348;2023-06-24T04:07:48;12.65;;;10.02;;
16522;SDS011;19889;52.546;13.348;2023-06-24T04:10:17;12.38;;;9.75;;
16522;SDS011;19889;52.546;13.348;2023-06-24T04:12:44;12.93;;;10.20;;
16522;SDS011;19889;52.546;13.348;2023-06-24T04:15:13;11.95;;;9.35;;
16522;SDS011;19889;52.546;13.348;2023-06-24T04:17:40;23.90;;;13.00;;
16522;SDS011;19889;52.546;13.348;2023-06-24T04:20:09;15.38;;;10.70;;
16522;SDS011;19889;52.546;13.348;2023-06-24T04:22:36;12.90;;;10.38;;
16522;SDS011;19889;52.546;13.348;2023-06-24T04:25:04;12.52;;;9.38;;
16522;SDS011;19889;52.546;13.348;2023-06-24T04:27:32;16.67;;;10.57;;
16522;SDS011;19889;52.546;13.348;2023-06-24T04:29:59;11.23;;;9.88;;
16522;SDS011;19889;52.546;13.348;2023-06-24T04:32:27;13.18;;;9.27;;
16522;SDS011;19889;52.546;13.348;2023-06-24T04:34:54;17.15;;;10.50;;
16522;SDS011;19889;52.546;13.348;2023-06-24T04:37:22;15.05;;;9.68;;
16522;SDS011;19889;52.546;13.348;2023-06-24T04:39:49;13.35;;;8.90;;
16522;SDS011;19889;52.546;13.348;2023-06-24T04:42:16;13.23;;;9.48;;
16522;SDS011;19889;52.546;13.348;2023-06-24T04:44:43;13.88;;;10.15;;
16522;SDS011;19889;52.546;13.348;2023-06-24T04:47:10;14.65;;;10.07;;
16522;SDS011;19889;52.546;13.348;2023-06-24T04:49:40;12.25;;;10.40;;
16522;SDS011;19889;52.546;13.348;2023-06-24T04:52:07;13.35;;;9.82;;
16522;SDS011;19889;52.546;13.348;2023-06-24T04:54:34;14.55;;;9.73;;
16522;SDS011;19889;52.546;13.348;2023-06-24T04:57:01;12.63;;;10.75;;
16522;SDS011;19889;52.546;13.348;2023-06-24T04:59:28;14.65;;;10.05;;
16522;SDS011;19889;52.546;13.348;2023-06-24T05:01:55;13.10;;;9.82;;
16522;SDS011;19889;52.546;13.348;2023-06-24T05:04:22;14.50;;;10.18;;
16522;SDS011;19889;52.546;13.348;2023-06-24T05:06:51;16.13;;;9.93;;
16522;SDS011;19889;52.546;13.348;2023-06-24T05:09:18;15.32;;;10.48;;
16522;SDS011;19889;52.546;13.348;2023-06-24T05:11:45;12.48;;;10.23;;
16522;SDS011;19889;52.546;13.348;2023-06-24T05:14:12;14.07;;;10.60;;
16522;SDS011;19889;52.546;13.348;2023-06-24T05:16:39;13.88;;;9.88;;
16522;SDS011;19889;52.546;13.348;2023-06-24T05:19:05;14.15;;;10.48;;
16522;SDS011;19889;52.546;13.348;2023-06-24T05:21:32;13.45;;;10.25;;
16522;SDS011;19889;52.546;13.348;2023-06-24T05:24:01;15.35;;;9.75;;
16522;SDS011;19889;52.546;13.348;2023-06-24T05:26:28;15.57;;;10.88;;
16522;SDS011;19889;52.546;13.348;2023-06-24T05:28:55;13.93;;;10.40;;
16522;SDS011;19889;52.546;13.348;2023-06-24T05:31:21;13.23;;;10.02;;
16522;SDS011;19889;52.546;13.348;2023-06-24T05:33:48;11.55;;;10.20;;
16522;SDS011;19889;52.546;13.348;2023-06-24T05:36:15;14.38;;;9.93;;
16522;SDS011;19889;52.546;13.348;2023-06-24T05:38:42;13.98;;;9.80;;
16522;SDS011;19889;52.546;13.348;2023-06-24T05:41:11;13.15;;;9.80;;
16522;SDS011;19889;52.546;13.348;2023-06-24T05:43:38;13.82;;;9.95;;
16522;SDS011;19889;52.546;13.348;2023-06-24T05:46:05;14.38;;;10.13;;
16522;SDS011;19889;52.546;13.348;2023-06-24T05:48:32;10.77;;;9.30;;
16522;SDS011;19889;52.546;13.348;2023-06-24T05:50:59;13.60;;;10.48;;
16522;SDS011;19889;52.546;13.348;2023-06-24T05:53:26;13.50;;;10.05;;
16522;SDS011;19889;52.546;13.348;2023-06-24T05:55:53;15.75;;;10.95;;
16522;SDS011;19889;52.546;13.348;2023-06-24T05:58:22;13.10;;;10.55;;
16522;SDS011;19889;52.546;13.348;2023-06-24T06:00:49;12.80;;;10.10;;
16522;SDS011;19889;52.546;13.348;2023-06-24T06:03:15;13.80;;;11.00;;
16522;SDS011;19889;52.546;13.348;2023-06-24T06:05:42;15.60;;;10.20;;
16522;SDS011;19889;52.546;13.348;2023-06-24T06:08:09;12.80;;;9.93;;
16522;SDS011;19889;52.546;13.348;2023-06-24T06:10:36;12.55;;;9.93;;
16522;SDS011;19889;52.546;13.348;2023-06-24T06:13:04;11.68;;;8.88;;
16522;SDS011;19889;52.546;13.348;2023-06-24T06:15:32;15.30;;;10.75;;
16522;SDS011;19889;52.546;13.348;2023-06-24T06:17:59;12.05;;;9.85;;
16522;SDS011;19889;52.546;13.348;2023-06-24T06:20:26;12.45;;;10.18;;
16522;SDS011;19889;52.546;13.348;2023-06-24T06:22:53;13.73;;;10.27;;
16522;SDS011;19889;52.546;13.348;2023-06-24T06:25:20;13.32;;;9.73;;
16522;SDS011;19889;52.546;13.348;2023-06-24T06:27:47;13.20;;;9.70;;
16522;SDS011;19889;52.546;13.348;2023-06-24T06:30:14;12.35;;;9.88;;
16522;SDS011;19889;52.546;13.348;2023-06-24T06:32:44;13.23;;;10.07;;
16522;SDS011;19889;52.546;13.348;2023-06-24T06:35:11;13.57;;;9.27;;
16522;SDS011;19889;52.546;13.348;2023-06-24T06:37:38;12.75;;;10.05;;
16522;SDS011;19889;52.546;13.348;2023-06-24T06:40:06;13.85;;;10.43;;
16522;SDS011;19889;52.546;13.348;2023-06-24T06:42:34;10.48;;;9.40;;
16522;SDS011;19889;52.546;13.348;2023-06-24T06:45:00;14.65;;;9.80;;
16522;SDS011;19889;52.546;13.348;2023-06-24T06:47:28;16.05;;;10.73;;
16522;SDS011;19889;52.546;13.348;2023-06-24T06:49:56;13.95;;;10.70;;
16522;SDS011;19889;52.546;13.348;2023-06-24T06:52:23;16.35;;;9.98;;
16522;SDS011;19889;52.546;13.348;2023-06-24T06:54:50;11.68;;;9.75;;
16522;SDS011;19889;52.546;13.348;2023-06-24T06:57:17;12.13;;;9.18;;
16522;SDS011;19889;52.546;13.348;2023-06-24T06:59:44;11.77;;;9.85;;
16522;SDS011;19889;52.546;13.348;2023-06-24T07:02:11;12.95;;;10.05;;
16522;SDS011;19889;52.546;13.348;2023-06-24T07:04:38;14.07;;;10.13;;
16522;SDS011;19889;52.546;13.348;2023-06-24T07:07:06;10.93;;;9.68;;
16522;SDS011;19889;52.546;13.348;2023-06-24T07:09:33;10.25;;;8.95;;
16522;SDS011;19889;52.546;13.348;2023-06-24T07:12:00;13.50;;;8.43;;
16522;SDS011;19889;52.546;13.348;2023-06-24T07:14:28;13.35;;;9.55;;
16522;SDS011;19889;52.546;13.348;2023-06-24T07:16:54;9.55;;;8.55;;
16522;SDS011;19889;52.546;13.348;2023-06-24T07:19:21;12.23;;;9.55;;
16522;SDS011;19889;52.546;13.348;2023-06-24T07:21:49;10.30;;;8.85;;
16522;SDS011;19889;52.546;13.348;2023-06-24T07:24:17;15.13;;;9.07;;
16522;SDS011;19889;52.546;13.348;2023-06-24T07:26:44;11.13;;;8.98;;
16522;SDS011;19889;52.546;13.348;2023-06-24T07:29:11;14.75;;;11.57;;
16522;SDS011;19889;52.546;13.348;2023-06-24T07:31:39;9.57;;;8.57;;
16522;SDS011;19889;52.546;13.348;2023-06-24T07:34:06;10.15;;;8.18;;
16522;SDS011;19889;52.546;13.348;2023-06-24T07:36:33;10.20;;;8.43;;
16522;SDS011;19889;52.546;13.348;2023-06-24T07:39:00;9.23;;;8.00;;
16522;SDS011;19889;52.546;13.348;2023-06-24T07:41:29;8.55;;;7.35;;
16522;SDS011;19889;52.546;13.348;2023-06-24T07:43:56;7.95;;;7.15;;
16522;SDS011;19889;52.546;13.348;2023-06-24T07:46:23;9.77;;;7.60;;
16522;SDS011;19889;52.546;13.348;2023-06-24T07:48:52;12.65;;;7.95;;
16522;SDS011;19889;52.546;13.348;2023-06-24T07:51:19;8.13;;;7.00;;
16522;SDS011;19889;52.546;13.348;2023-06-24T07:53:46;9.63;;;7.07;;
16522;SDS011;19889;52.546;13.348;2023-06-24T07:56:13;8.25;;;7.30;;
16522;SDS011;19889;52.546;13.348;2023-06-24T07:58:41;8.23;;;6.78;;
16522;SDS011;19889;52.546;13.348;2023-06-24T08:01:08;8.73;;;7.82;;
16522;SDS011;19889;52.546;13.348;2023-06-24T08:03:36;7.93;;;7.13;;
16522;SDS011;19889;52.546;13.348;2023-06-24T08:06:03;8.48;;;7.57;;
16522;SDS011;19889;52.546;13.348;2023-06-24T08:08:30;10.05;;;7.78;;
16522;SDS011;19889;52.546;13.348;2023-06-24T08:10:57;10.48;;;6.82;;
16522;SDS011;19889;52.546;13.348;2023-06-24T08:13:24;8.80;;;7.88;;
16522;SDS011;19889;52.546;13.348;2023-06-24T08:15:52;10.52;;;7.20;;
16522;SDS011;19889;52.546;13.348;2023-06-24T08:18:19;8.48;;;7.53;;
16522;SDS011;19889;52.546;13.348;2023-06-24T08:20:47;10.00;;;6.90;;
16522;SDS011;19889;52.546;13.348;2023-06-24T08:23:14;8.75;;;7.80;;
16522;SDS011;19889;52.546;13.348;2023-06-24T08:25:50;7.25;;;6.22;;
16522;SDS011;19889;52.546;13.348;2023-06-24T08:32:00;7.78;;;6.78;;
16522;SDS011;19889;52.546;13.348;2023-06-24T08:34:26;7.50;;;6.57;;
16522;SDS011;19889;52.546;13.348;2023-06-24T08:36:53;7.20;;;6.45;;
16522;SDS011;19889;52.546;13.348;2023-06-24T08:39:20;7.63;;;6.55;;
16522;SDS011;19889;52.546;13.348;2023-06-24T08:41:47;8.00;;;6.55;;
16522;SDS011;19889;52.546;13.348;2023-06-24T08:44:13;6.93;;;6.05;;
16522;SDS011;19889;52.546;13.348;2023-06-24T08:46:40;13.10;;;7.10;;
16522;SDS011;19889;52.546;13.348;2023-06-24T08:49:10;7.22;;;6.30;;
16522;SDS011;19889;52.546;13.348;2023-06-24T08:51:49;6.95;;;6.10;;
16522;SDS011;19889;52.546;13.348;2023-06-24T08:54:20;6.25;;;5.65;;
16522;SDS011;19889;52.546;13.348;2023-06-24T08:56:49;7.15;;;6.25;;
16522;SDS011;19889;52.546;13.348;2023-06-24T08:59:16;8.48;;;6.85;;
16522;SDS011;19889;52.546;13.348;2023-06-24T09:01:45;6.78;;;6.18;;
16522;SDS011;19889;52.546;13.348;2023-06-24T09:04:14;6.90;;;6.20;;
16522;SDS011;19889;52.546;13.348;2023-06-24T09:06:41;7.55;;;6.75;;
16522;SDS011;19889;52.546;13.348;2023-06-24T09:09:16;8.07;;;6.45;;
16522;SDS011;19889;52.546;13.348;2023-06-24T09:11:50;7.43;;;6.60;;
16522;SDS011;19889;52.546;13.348;2023-06-24T09:14:18;8.27;;;7.47;;
16522;SDS011;19889;52.546;13.348;2023-06-24T09:16:50;8.70;;;5.90;;
16522;SDS011;19889;52.546;13.348;2023-06-24T09:19:21;9.25;;;5.75;;
16522;SDS011;19889;52.546;13.348;2023-06-24T09:21:48;7.03;;;6.20;;
16522;SDS011;19889;52.546;13.348;2023-06-24T09:24:16;10.82;;;5.75;;
16522;SDS011;19889;52.546;13.348;2023-06-24T09:26:44;7.53;;;5.90;;
16522;SDS011;19889;52.546;13.348;2023-06-24T09:29:12;6.85;;;5.50;;
16522;SDS011;19889;52.546;13.348;2023-06-24T09:31:46;8.93;;;6.72;;
16522;SDS011;19889;52.546;13.348;2023-06-24T09:34:13;9.82;;;6.47;;
16522;SDS011;19889;52.546;13.348;2023-06-24T09:36:43;8.68;;;5.65;;
16522;SDS011;19889;52.546;13.348;2023-06-24T09:39:10;8.00;;;6.20;;
16522;SDS011;19889;52.546;13.348;2023-06-24T09:41:40;5.75;;;5.25;;
16522;SDS011;19889;52.546;13.348;2023-06-24T09:44:08;7.93;;;5.07;;
16522;SDS011;19889;52.546;13.348;2023-06-24T09:46:35;8.30;;;6.03;;
16522;SDS011;19889;52.546;13.348;2023-06-24T09:49:03;4.90;;;4.38;;
16522;SDS011;19889;52.546;13.348;2023-06-24T09:51:31;4.68;;;4.18;;
16522;SDS011;19889;52.546;13.348;2023-06-24T09:54:07;6.07;;;4.53;;
16522;SDS011;19889;52.546;13.348;2023-06-24T09:56:34;7.15;;;4.00;;
16522;SDS011;19889;52.546;13.348;2023-06-24T09:59:03;5.05;;;4.38;;
16522;SDS011;19889;52.546;13.348;2023-06-24T10:01:31;5.28;;;4.78;;
16522;SDS011;19889;52.546;13.348;2023-06-24T10:03:59;5.85;;;4.78;;
16522;SDS011;19889;52.546;13.348;2023-06-24T10:06:26;5.22;;;4.68;;
16522;SDS011;19889;52.546;13.348;2023-06-24T10:09:04;5.70;;;5.20;;
16522;SDS011;19889;52.546;13.348;2023-06-24T10:11:33;4.90;;;4.50;;
16522;SDS011;19889;52.546;13.348;2023-06-24T10:14:08;6.63;;;4.80;;
16522;SDS011;19889;52.546;13.348;2023-06-24T10:16:35;6.18;;;5.15;;
16522;SDS011;19889;52.546;13.348;2023-06-24T10:19:08;7.00;;;5.40;;
16522;SDS011;19889;52.546;13.348;2023-06-24T10:21:45;5.68;;;4.57;;
16522;SDS011;19889;52.546;13.348;2023-06-24T10:24:30;8.13;;;4.60;;
16522;SDS011;19889;52.546;13.348;2023-06-24T10:27:04;6.50;;;4.70;;
16522;SDS011;19889;52.546;13.348;2023-06-24T10:29:33;5.40;;;4.57;;
16522;SDS011;19889;52.546;13.348;2023-06-24T10:32:02;5.18;;;4.20;;
16522;SDS011;19889;52.546;13.348;2023-06-24T10:34:33;6.70;;;4.75;;
16522;SDS011;19889;52.546;13.348;2023-06-24T10:37:13;6.00;;;4.50;;
16522;SDS011;19889;52.546;13.348;2023-06-24T10:39:47;6.72;;;4.55;;
16522;SDS011;19889;52.546;13.348;2023-06-24T10:42:30;5.38;;;4.88;;
16522;SDS011;19889;52.546;13.348;2023-06-24T10:45:01;6.60;;;4.97;;
16522;SDS011;19889;52.546;13.348;2023-06-24T10:47:31;6.43;;;4.88;;
16522;SDS011;19889;52.546;13.348;2023-06-24T10:49:58;7.30;;;4.95;;
16522;SDS011;19889;52.546;13.348;2023-06-24T10:52:25;6.35;;;4.95;;
16522;SDS011;19889;52.546;13.348;2023-06-24T10:54:52;4.55;;;4.15;;
16522;SDS011;19889;52.546;13.348;2023-06-24T10:57:20;5.00;;;4.50;;
16522;SDS011;19889;52.546;13.348;2023-06-24T10:59:50;4.90;;;4.50;;
16522;SDS011;19889;52.546;13.348;2023-06-24T11:02:18;4.90;;;4.50;;
16522;SDS011;19889;52.546;13.348;2023-06-24T11:04:47;5.43;;;4.90;;
16522;SDS011;19889;52.546;13.348;2023-06-24T11:07:16;5.32;;;4.82;;
16522;SDS011;19889;52.546;13.348;2023-06-24T11:09:48;5.75;;;4.38;;
16522;SDS011;19889;52.546;13.348;2023-06-24T11:12:15;7.05;;;5.15;;
16522;SDS011;19889;52.546;13.348;2023-06-24T11:14:42;5.20;;;4.75;;
16522;SDS011;19889;52.546;13.348;2023-06-24T11:17:11;5.22;;;4.65;;
16522;SDS011;19889;52.546;13.348;2023-06-24T11:19:38;4.95;;;4.47;;
16522;SDS011;19889;52.546;13.348;2023-06-24T11:22:06;10.07;;;7.90;;
16522;SDS011;19889;52.546;13.348;2023-06-24T11:24:34;6.13;;;4.90;;
16522;SDS011;19889;52.546;13.348;2023-06-24T11:27:01;11.75;;;10.35;;
16522;SDS011;19889;52.546;13.348;2023-06-24T11:29:31;6.63;;;5.82;;
16522;SDS011;19889;52.546;13.348;2023-06-24T11:32:00;5.72;;;4.70;;
16522;SDS011;19889;52.546;13.348;2023-06-24T11:34:29;8.07;;;4.80;;
16522;SDS011;19889;52.546;13.348;2023-06-24T11:36:56;5.85;;;4.20;;
16522;SDS011;19889;52.546;13.348;2023-06-24T11:39:23;7.22;;;4.95;;
16522;SDS011;19889;52.546;13.348;2023-06-24T11:41:51;4.47;;;4.05;;
16522;SDS011;19889;52.546;13.348;2023-06-24T11:44:19;6.38;;;4.85;;
16522;SDS011;19889;52.546;13.348;2023-06-24T11:46:46;4.75;;;4.18;;
16522;SDS011;19889;52.546;13.348;2023-06-24T11:49:13;4.45;;;4.03;;
16522;SDS011;19889;52.546;13.348;2023-06-24T11:51:49;5.03;;;4.53;;
16522;SDS011;19889;52.546;13.348;2023-06-24T11:54:18;6.85;;;4.68;;
16522;SDS011;19889;52.546;13.348;2023-06-24T11:56:49;4.72;;;4.28;;
16522;SDS011;19889;52.546;13.348;2023-06-24T11:59:17;6.97;;;4.80;;
16522;SDS011;19889;52.546;13.348;2023-06-24T12:01:45;6.35;;;4.70;;
16522;SDS011;19889;52.546;13.348;2023-06-24T12:04:18;7.00;;;4.22;;
16522;SDS011;19889;52.546;13.348;2023-06-24T12:06:46;6.22;;;3.80;;
16522;SDS011;19889;52.546;13.348;2023-06-24T12:09:14;5.25;;;4.63;;
16522;SDS011;19889;52.546;13.348;2023-06-24T12:11:42;5.97;;;5.30;;
16522;SDS011;19889;52.546;13.348;2023-06-24T12:14:09;5.72;;;4.75;;
16522;SDS011;19889;52.546;13.348;2023-06-24T12:16:36;5.03;;;4.40;;
16522;SDS011;19889;52.546;13.348;2023-06-24T12:19:04;6.35;;;5.68;;
16522;SDS011;19889;52.546;13.348;2023-06-24T12:21:31;5.60;;;5.00;;
16522;SDS011;19889;52.546;13.348;2023-06-24T12:23:58;4.40;;;4.00;;
16522;SDS011;19889;52.546;13.348;2023-06-24T12:26:27;5.50;;;4.70;;
16522;SDS011;19889;52.546;13.348;2023-06-24T12:28:54;5.28;;;4.78;;
16522;SDS011;19889;52.546;13.348;2023-06-24T12:31:22;6.25;;;4.88;;
16522;SDS011;19889;52.546;13.348;2023-06-24T12:33:49;4.53;;;4.03;;
16522;SDS011;19889;52.546;13.348;2023-06-24T12:36:17;5.65;;;4.80;;
16522;SDS011;19889;52.546;13.348;2023-06-24T12:38:44;6.53;;;5.00;;
16522;SDS011;19889;52.546;13.348;2023-06-24T12:41:11;7.38;;;5.10;;
16522;SDS011;19889;52.546;13.348;2023-06-24T12:43:39;5.88;;;5.20;;
16522;SDS011;19889;52.546;13.348;2023-06-24T12:46:06;5.68;;;5.13;;
16522;SDS011;19889;52.546;13.348;2023-06-24T12:48:33;6.95;;;4.97;;
16522;SDS011;19889;52.546;13.348;2023-06-24T12:51:00;5.07;;;4.50;;
16522;SDS011;19889;52.546;13.348;2023-06-24T12:53:27;4.85;;;4.18;;
16522;SDS011;19889;52.546;13.348;2023-06-24T12:55:54;8.50;;;6.80;;
16522;SDS011;19889;52.546;13.348;2023-06-24T12:58:22;7.88;;;5.13;;
16522;SDS011;19889;52.546;13.348;2023-06-24T13:00:52;4.72;;;4.32;;
16522;SDS011;19889;52.546;13.348;2023-06-24T13:03:19;10.60;;;4.60;;
16522;SDS011;19889;52.546;13.348;2023-06-24T13:05:46;4.63;;;4.22;;
16522;SDS011;19889;52.546;13.348;2023-06-24T13:08:13;5.10;;;4.60;;
16522;SDS011;19889;52.546;13.348;2023-06-24T13:10:40;6.03;;;4.40;;
16522;SDS011;19889;52.546;13.348;2023-06-24T13:13:07;4.28;;;3.88;;
16522;SDS011;19889;52.546;13.348;2023-06-24T13:15:34;6.65;;;5.97;;
16522;SDS011;19889;52.546;13.348;2023-06-24T13:18:03;6.90;;;5.22;;
16522;SDS011;19889;52.546;13.348;2023-06-24T13:20:30;6.55;;;5.80;;
16522;SDS011;19889;52.546;13.348;2023-06-24T13:22:57;5.00;;;4.28;;
16522;SDS011;19889;52.546;13.348;2023-06-24T13:25:24;14.10;;;6.13;;
16522;SDS011;19889;52.546;13.348;2023-06-24T13:27:51;9.20;;;5.20;;
16522;SDS011;19889;52.546;13.348;2023-06-24T13:30:18;11.68;;;5.47;;
16522;SDS011;19889;52.546;13.348;2023-06-24T13:32:45;11.90;;;6.10;;
16522;SDS011;19889;52.546;13.348;2023-06-24T13:35:15;24.55;;;5.68;;
16522;SDS011;19889;52.546;13.348;2023-06-24T13:37:42;19.02;;;10.85;;
16522;SDS011;19889;52.546;13.348;2023-06-24T13:40:10;13.88;;;8.13;;
16522;SDS011;19889;52.546;13.348;2023-06-24T13:42:37;9.60;;;5.32;;
16522;SDS011;19889;52.546;13.348;2023-06-24T13:45:05;5.22;;;4.30;;
16522;SDS011;19889;52.546;13.348;2023-06-24T13:47:32;5.03;;;3.88;;
16522;SDS011;19889;52.546;13.348;2023-06-24T13:49:59;6.57;;;3.97;;
16522;SDS011;19889;52.546;13.348;2023-06-24T13:52:28;6.50;;;4.10;;
16522;SDS011;19889;52.546;13.348;2023-06-24T13:54:55;5.50;;;4.35;;
16522;SDS011;19889;52.546;13.348;2023-06-24T13:57:22;4.60;;;4.03;;
16522;SDS011;19889;52.546;13.348;2023-06-24T13:59:49;5.57;;;3.92;;
16522;SDS011;19889;52.546;13.348;2023-06-24T14:02:16;5.78;;;3.67;;
16522;SDS011;19889;52.546;13.348;2023-06-24T14:04:44;11.93;;;4.93;;
16522;SDS011;19889;52.546;13.348;2023-06-24T14:07:11;5.07;;;4.40;;
16522;SDS011;19889;52.546;13.348;2023-06-24T14:09:40;7.32;;;4.97;;
16522;SDS011;19889;52.546;13.348;2023-06-24T14:12:07;6.45;;;4.82;;
16522;SDS011;19889;52.546;13.348;2023-06-24T14:14:35;8.65;;;4.45;;
16522;SDS011;19889;52.546;13.348;2023-06-24T14:17:04;5.22;;;4.20;;
16522;SDS011;19889;52.546;13.348;2023-06-24T14:19:34;5.10;;;4.47;;
16522;SDS011;19889;52.546;13.348;2023-06-24T14:22:01;4.10;;;3.70;;
16522;SDS011;19889;52.546;13.348;2023-06-24T14:24:29;7.93;;;4.03;;
16522;SDS011;19889;52.546;13.348;2023-06-24T14:26:57;5.65;;;4.38;;
16522;SDS011;19889;52.546;13.348;2023-06-24T14:29:24;11.18;;;4.65;;
16522;SDS011;19889;52.546;13.348;2023-06-24T14:31:51;4.47;;;4.07;;
16522;SDS011;19889;52.546;13.348;2023-06-24T14:34:18;7.88;;;4.40;;
16522;SDS011;19889;52.546;13.348;2023-06-24T14:36:45;9.32;;;5.80;;
16522;SDS011;19889;52.546;13.348;2023-06-24T14:39:13;5.45;;;4.88;;